createdAt,value
2022-08-16T09:30:56.236Z,29.52
2022-08-16T09:31:57.411Z,29.92
2022-08-16T09:32:56.780Z,30.26
2022-08-16T09:33:56.693Z,30.47
2022-08-16T09:34:58.276Z,30.58
2022-08-16T09:35:57.352Z,30.70
2022-08-16T09:36:56.514Z,30.79
2022-08-16T09:38:01.073Z,30.92
2022-08-16T09:38:59.809Z,30.86
2022-08-16T09:39:56.337Z,30.76
2022-08-16T09:40:56.321Z,30.83
2022-08-16T09:41:57.411Z,30.98
2022-08-16T09:42:59.069Z,31.04
2022-08-16T09:43:59.943Z,31.12
2022-08-16T09:45:11.952Z,31.13
2022-08-16T09:45:55.964Z,31.02
2022-08-16T09:46:57.758Z,30.88
2022-08-16T09:47:57.795Z,30.77
2022-08-16T09:48:56.532Z,30.70
2022-08-16T09:49:56.127Z,30.65
2022-08-16T10:07:38.343Z,30.97
2022-08-16T10:08:31.173Z,30.95
2022-08-16T10:09:53.874Z,31.07
2022-08-16T10:10:31.327Z,31.14
2022-08-16T10:11:30.964Z,31.21
2022-08-16T10:12:30.938Z,31.19
2022-08-16T10:13:30.859Z,31.14
2022-08-16T10:14:32.919Z,31.12
2022-08-16T10:15:30.709Z,31.25
2022-08-16T10:16:30.652Z,31.32
2022-08-16T10:17:30.650Z,31.35
2022-08-16T10:18:56.361Z,31.46
2022-08-16T10:19:32.085Z,31.56
2022-08-16T10:20:30.417Z,31.69
2022-08-16T10:21:32.044Z,31.72
2022-08-16T10:22:30.291Z,31.76
2022-08-16T10:23:30.252Z,31.58
2022-08-16T10:24:31.733Z,31.38
2022-08-16T10:27:16.247Z,31.31
2022-08-16T10:27:28.929Z,31.35
2022-08-16T10:27:56.645Z,31.48
2022-08-16T10:28:40.172Z,31.58
2022-08-16T10:30:00.924Z,31.62
2022-08-16T10:30:39.128Z,31.62
2022-08-16T10:31:44.171Z,31.63
2022-08-16T10:32:36.155Z,31.69
2022-08-16T10:33:40.489Z,31.76
2022-08-16T10:34:36.032Z,31.68
2022-08-16T10:35:37.185Z,31.62
2022-08-16T10:36:39.405Z,31.66
2022-08-16T10:37:36.654Z,31.68
2022-08-16T10:38:37.104Z,31.62
2022-08-16T10:39:41.865Z,31.58
2022-08-16T10:40:35.706Z,31.47
2022-08-16T10:41:35.628Z,31.41
2022-08-16T10:42:35.542Z,31.35
2022-08-16T10:43:35.519Z,31.39
2022-08-16T10:44:35.432Z,31.36
2022-08-16T10:45:37.061Z,31.38
2022-08-16T10:46:40.715Z,31.41
2022-08-16T10:47:38.688Z,31.39
2022-08-16T10:48:35.222Z,31.51
